Time;durP1;ratioP1;P1;durP2;ratioP2;P2;SDS_P1;SDS_P2;PMS_P1;PMS_P2;Temp;Humidity;BMP_temperature;BMP_pressure;BME280_temperature;BME280_humidity;BME280_pressure;Samples;Min_cycle;Max_cycle;Signal;HPM_P1;HPM_P2
2022/03/05 00:01:10;;;;;;;17.40;7.95;;;;;;;10.06;27.53;101641.50;5053331;28;20664;-83
2022/03/05 00:03:37;;;;;;;15.80;8.10;;;;;;;10.04;27.42;101647.06;5041665;28;20123;-83
2022/03/05 00:06:03;;;;;;;17.08;8.70;;;;;;;10.04;27.77;101638.91;5038318;28;20345;-83
2022/03/05 00:08:30;;;;;;;16.88;8.25;;;;;;;10.04;27.58;101641.63;5053137;28;20135;-82
2022/03/05 00:10:57;;;;;;;16.23;8.30;;;;;;;10.02;27.69;101650.78;5057554;28;20093;-81
2022/03/05 00:13:24;;;;;;;16.77;8.43;;;;;;;9.99;27.51;101643.69;5051671;28;20065;-82
2022/03/05 00:15:51;;;;;;;16.35;7.95;;;;;;;9.94;27.95;101643.06;5039904;28;20045;-82
2022/03/05 00:18:18;;;;;;;17.45;8.30;;;;;;;9.91;27.66;101648.63;5042995;28;20082;-82
2022/03/05 00:20:46;;;;;;;16.25;8.32;;;;;;;9.89;27.79;101653.25;5049461;28;20049;-82
2022/03/05 00:23:17;;;;;;;17.60;8.73;;;;;;;9.77;27.88;101646.63;5066306;28;20045;-81
2022/03/05 00:25:44;;;;;;;17.95;8.75;;;;;;;9.74;28.02;101652.19;5047913;28;20071;-82
2022/03/05 00:28:10;;;;;;;15.82;7.65;;;;;;;9.71;27.72;101654.19;5044526;28;20072;-81
2022/03/05 00:30:38;;;;;;;17.73;8.07;;;;;;;9.66;27.89;101654.41;5046942;28;20099;-81
2022/03/05 00:33:04;;;;;;;15.95;7.93;;;;;;;9.65;28.05;101657.19;5057363;28;20045;-82
2022/03/05 00:35:31;;;;;;;17.20;8.40;;;;;;;9.60;28.25;101652.03;5053003;28;20096;-82
2022/03/05 00:37:59;;;;;;;21.17;9.55;;;;;;;9.59;28.21;101650.25;5029448;28;20049;-82
2022/03/05 00:40:26;;;;;;;18.20;8.65;;;;;;;9.57;28.15;101657.59;5052891;28;20131;-82
2022/03/05 00:42:52;;;;;;;17.25;8.65;;;;;;;9.55;28.37;101656.81;5041116;28;20133;-82
2022/03/05 00:45:19;;;;;;;18.50;8.45;;;;;;;9.53;28.14;101645.16;5043760;28;20151;-80
2022/03/05 00:47:45;;;;;;;20.67;9.63;;;;;;;9.48;28.59;101653.50;5044540;28;20099;-81
2022/03/05 00:50:12;;;;;;;17.40;9.02;;;;;;;9.47;28.58;101651.72;5061570;28;20052;-80
2022/03/05 00:52:40;;;;;;;17.98;8.40;;;;;;;9.44;28.43;101657.34;5059311;28;20236;-82
2022/03/05 00:55:07;;;;;;;18.67;9.23;;;;;;;9.41;28.41;101651.16;5056252;28;20092;-82
2022/03/05 00:57:34;;;;;;;20.00;10.40;;;;;;;9.37;28.58;101664.00;5061770;28;20116;-80
2022/03/05 01:00:03;;;;;;;21.77;9.52;;;;;;;9.32;28.46;101663.34;5052152;28;20045;-81
2022/03/05 01:02:31;;;;;;;20.48;9.50;;;;;;;9.24;28.79;101649.28;5058470;28;20103;-83
2022/03/05 01:04:58;;;;;;;20.02;9.40;;;;;;;9.23;28.63;101661.06;5038585;28;20084;-82
2022/03/05 01:07:24;;;;;;;20.98;9.95;;;;;;;9.19;28.80;101659.47;5053617;28;20368;-82
2022/03/05 01:09:51;;;;;;;21.20;9.88;;;;;;;9.12;28.98;101645.34;5053514;28;20037;-82
2022/03/05 01:12:18;;;;;;;19.30;9.15;;;;;;;9.13;28.91;101646.25;5055246;28;20158;-82
2022/03/05 01:14:45;;;;;;;20.70;9.57;;;;;;;9.07;28.91;101633.84;5041176;28;20076;-83
2022/03/05 01:17:11;;;;;;;20.65;9.35;;;;;;;9.05;29.08;101643.91;5058780;28;20069;-82
2022/03/05 01:19:38;;;;;;;19.23;9.35;;;;;;;9.04;29.36;101636.72;5055535;28;20110;-82
2022/03/05 01:22:05;;;;;;;20.80;9.43;;;;;;;8.98;29.25;101628.88;5053798;28;20079;-81
2022/03/05 01:24:31;;;;;;;20.45;9.57;;;;;;;8.97;29.11;101635.25;5035164;28;20091;-83
2022/03/05 01:26:58;;;;;;;20.35;9.82;;;;;;;8.97;29.17;101627.13;5038327;28;20049;-81
2022/03/05 01:29:25;;;;;;;18.98;8.80;;;;;;;8.95;29.18;101626.31;5035474;28;20072;-82
2022/03/05 01:31:51;;;;;;;22.52;10.48;;;;;;;8.95;29.24;101629.03;5058502;28;20068;-82
2022/03/05 01:34:18;;;;;;;20.08;9.98;;;;;;;8.93;29.34;101627.34;5034645;28;20053;-82
2022/03/05 01:36:44;;;;;;;20.13;9.35;;;;;;;8.92;29.43;101636.41;5035937;28;20075;-82
2022/03/05 01:39:12;;;;;;;20.52;10.35;;;;;;;8.86;29.41;101632.19;5050321;28;20076;-82
2022/03/05 01:41:39;;;;;;;20.83;9.93;;;;;;;8.85;29.43;101627.72;5034039;28;20044;-82
2022/03/05 01:44:05;;;;;;;21.67;10.02;;;;;;;8.86;29.47;101628.59;5050632;28;20076;-82
2022/03/05 01:46:35;;;;;;;24.65;10.57;;;;;;;8.85;29.82;101624.13;5036142;28;20259;-81
2022/03/05 01:49:10;;;;;;;22.27;10.95;;;;;;;8.82;30.23;101617.00;5053668;28;20049;-82
2022/03/05 01:51:37;;;;;;;21.30;9.88;;;;;;;8.77;29.98;101613.66;5037742;28;20073;-82
2022/03/05 01:54:04;;;;;;;23.38;10.98;;;;;;;8.82;29.65;101624.25;5034617;28;20281;-82
2022/03/05 01:56:31;;;;;;;21.02;9.20;;;;;;;8.81;29.71;101623.41;5042161;28;20086;-81
2022/03/05 01:58:59;;;;;;;24.35;9.80;;;;;;;8.82;30.01;101621.53;5050256;28;20137;-82
2022/03/05 02:01:27;;;;;;;23.35;10.27;;;;;;;8.83;29.97;101628.72;5040584;28;20122;-81
2022/03/05 02:03:59;;;;;;;22.08;10.45;;;;;;;8.82;29.98;101629.66;5063324;28;20044;-83
2022/03/05 02:06:26;;;;;;;24.98;10.77;;;;;;;8.81;29.99;101630.66;5060391;28;20037;-81
2022/03/05 02:08:56;;;;;;;22.27;10.48;;;;;;;8.84;30.03;101627.78;5052091;28;20049;-81
2022/03/05 02:11:23;;;;;;;21.35;9.70;;;;;;;8.82;29.72;101618.84;5042008;28;20114;-82
2022/03/05 02:13:50;;;;;;;25.63;11.00;;;;;;;8.80;29.82;101618.94;5035195;28;20056;-82
2022/03/05 02:16:18;;;;;;;25.88;10.82;;;;;;;8.82;29.85;101621.53;5057474;28;20075;-81
2022/03/05 02:18:55;;;;;;;21.55;10.00;;;;;;;8.86;30.55;101626.75;5043868;28;20069;-81
2022/03/05 02:21:25;;;;;;;23.52;10.80;;;;;;;8.84;30.68;101615.13;5055080;28;20083;-81
2022/03/05 02:23:53;;;;;;;23.95;10.50;;;;;;;8.82;30.09;101611.59;5041332;28;20059;-82
2022/03/05 02:26:22;;;;;;;25.60;10.85;;;;;;;8.85;30.00;101614.16;5061660;28;20041;-81
2022/03/05 02:28:49;;;;;;;23.60;10.98;;;;;;;8.84;30.23;101609.69;5062825;28;20049;-82
2022/03/05 02:31:16;;;;;;;24.42;10.02;;;;;;;8.84;30.08;101603.41;5042381;28;20049;-81
2022/03/05 02:33:43;;;;;;;21.20;10.80;;;;;;;8.80;30.20;101605.41;5076658;28;20093;-81
2022/03/05 02:36:10;;;;;;;25.55;11.80;;;;;;;8.82;30.20;101608.00;5064031;28;20504;-82
2022/03/05 02:38:37;;;;;;;28.00;12.30;;;;;;;8.78;30.15;101607.28;5046442;28;20075;-81
2022/03/05 02:41:04;;;;;;;20.67;10.35;;;;;;;8.75;30.14;101612.84;5037072;28;20499;-81
2022/03/05 02:43:31;;;;;;;24.75;10.18;;;;;;;8.73;30.03;101609.31;5036368;28;20049;-81
2022/03/05 02:45:57;;;;;;;22.02;10.50;;;;;;;8.70;29.94;101607.66;5053614;28;20068;-81
2022/03/05 02:48:25;;;;;;;27.73;11.30;;;;;;;8.67;30.47;101604.19;5040726;28;20129;-81
2022/03/05 02:50:51;;;;;;;22.65;10.15;;;;;;;8.61;30.20;101604.50;5050212;28;20071;-80
2022/03/05 02:53:18;;;;;;;24.35;11.25;;;;;;;8.60;30.52;101605.44;5067780;28;20531;-80
2022/03/05 02:55:45;;;;;;;27.02;11.07;;;;;;;8.56;30.61;101598.44;5047064;28;20526;-81
2022/03/05 02:58:12;;;;;;;20.25;10.00;;;;;;;8.54;30.35;101594.91;5046293;28;20084;-81
2022/03/05 03:00:39;;;;;;;24.27;10.52;;;;;;;8.52;30.24;101608.50;5066042;28;20041;-81
2022/03/05 03:03:06;;;;;;;23.33;10.10;;;;;;;8.48;30.42;101597.91;5053990;28;20060;-81
2022/03/05 03:05:33;;;;;;;23.63;11.18;;;;;;;8.48;30.55;101600.63;5070273;28;20051;-80
2022/03/05 03:07:59;;;;;;;24.80;10.88;;;;;;;8.44;30.87;101597.16;5066122;28;20056;-82
2022/03/05 03:10:26;;;;;;;24.63;11.38;;;;;;;8.39;30.76;101601.91;5057381;28;20091;-82
2022/03/05 03:12:53;;;;;;;22.83;10.98;;;;;;;8.37;30.37;101601.97;5051257;28;20040;-82
2022/03/05 03:15:20;;;;;;;24.05;10.43;;;;;;;8.33;30.57;101603.06;5052540;28;20072;-81
2022/03/05 03:17:50;;;;;;;23.02;10.60;;;;;;;8.30;30.85;101599.59;5067427;28;20052;-81
2022/03/05 03:20:23;;;;;;;23.45;10.43;;;;;;;8.27;31.39;101597.03;5041935;28;20069;-81
2022/03/05 03:22:51;;;;;;;25.70;11.18;;;;;;;8.18;30.54;101594.72;5060466;28;20044;-81
2022/03/05 03:25:18;;;;;;;23.75;10.70;;;;;;;8.13;30.66;101596.78;5057682;28;20053;-81
2022/03/05 03:27:44;;;;;;;23.95;11.40;;;;;;;8.12;31.13;101601.31;5056370;28;20072;-82
2022/03/05 03:30:12;;;;;;;25.70;10.68;;;;;;;8.09;30.72;101595.13;5035740;28;20068;-81
2022/03/05 03:32:39;;;;;;;23.15;10.77;;;;;;;8.05;31.10;101597.13;5043477;28;20079;-81
2022/03/05 03:35:07;;;;;;;24.20;10.77;;;;;;;8.05;30.96;101607.06;5033857;28;20144;-83
2022/03/05 03:37:35;;;;;;;24.70;10.80;;;;;;;8.02;31.27;101608.94;5035553;28;20098;-82
2022/03/05 03:40:05;;;;;;;24.20;11.63;;;;;;;8.00;31.29;101601.84;5031565;28;20107;-81
2022/03/05 03:42:32;;;;;;;25.60;11.82;;;;;;;7.96;31.05;101614.63;5065428;28;20049;-82
2022/03/05 03:44:58;;;;;;;22.20;9.55;;;;;;;7.93;31.40;101606.63;5037781;28;20135;-83
2022/03/05 03:47:26;;;;;;;24.35;10.80;;;;;;;7.93;31.43;101611.16;5055766;28;20106;-83
2022/03/05 03:49:53;;;;;;;22.08;10.23;;;;;;;7.92;31.32;101612.97;5048154;28;20072;-83
2022/03/05 03:52:20;;;;;;;24.35;10.23;;;;;;;7.90;31.63;101617.59;5069923;28;20041;-82
2022/03/05 03:54:50;;;;;;;22.95;10.68;;;;;;;7.96;31.29;101616.44;5042322;28;20472;-83
2022/03/05 03:57:16;;;;;;;22.25;9.55;;;;;;;7.94;31.45;101608.41;5038506;28;20114;-83
2022/03/05 03:59:45;;;;;;;20.90;9.88;;;;;;;7.97;31.46;101619.09;5038608;28;20128;-83
2022/03/05 04:02:11;;;;;;;23.17;10.35;;;;;;;7.99;31.38;101611.78;5074699;28;20424;-83
2022/03/05 04:10:00;;;;;;;22.83;10.02;;;;;;;7.99;31.41;101619.88;4953768;28;20059;-73
2022/03/05 04:12:26;;;;;;;22.55;9.80;;;;;;;8.01;31.54;101615.28;4949574;28;20691;-73
2022/03/05 04:14:54;;;;;;;25.80;10.93;;;;;;;8.01;31.47;101618.00;4958300;28;20059;-73
2022/03/05 04:17:22;;;;;;;24.40;10.82;;;;;;;8.00;31.23;101613.53;4948485;28;20125;-73
2022/03/05 04:19:49;;;;;;;24.90;10.77;;;;;;;7.99;31.37;101619.00;4937416;28;20463;-73
2022/03/05 04:22:15;;;;;;;25.38;10.82;;;;;;;7.96;31.65;101619.16;4949101;28;20134;-75
2022/03/05 04:24:42;;;;;;;23.50;10.50;;;;;;;7.93;31.22;101622.84;4955603;28;20058;-72
2022/03/05 04:27:10;;;;;;;23.70;10.93;;;;;;;7.91;31.71;101618.47;4954104;28;20062;-73
2022/03/05 04:29:36;;;;;;;23.85;10.77;;;;;;;7.90;31.79;101623.00;4939956;28;20437;-75
2022/03/05 04:32:03;;;;;;;21.10;9.73;;;;;;;7.90;31.50;101627.53;4944590;28;20576;-73
2022/03/05 04:34:30;;;;;;;22.30;10.27;;;;;;;7.87;31.92;101633.06;4948614;28;20523;-74
2022/03/05 04:36:57;;;;;;;28.98;11.68;;;;;;;7.86;32.00;101634.00;4931790;28;20134;-72
2022/03/05 04:39:25;;;;;;;24.17;10.98;;;;;;;7.85;31.61;101632.25;4949987;28;20381;-75
2022/03/05 04:41:52;;;;;;;23.45;10.45;;;;;;;7.85;31.67;101632.25;4951455;28;20142;-72
2022/03/05 04:44:19;;;;;;;24.95;10.35;;;;;;;7.83;31.94;101637.72;4948571;28;20062;-73
2022/03/05 04:46:46;;;;;;;23.33;10.10;;;;;;;7.84;31.74;101639.47;4961005;28;20051;-73
2022/03/05 04:49:15;;;;;;;24.65;10.18;;;;;;;7.83;31.85;101634.13;4933297;28;20050;-76
2022/03/05 04:51:41;;;;;;;23.63;9.98;;;;;;;7.82;31.79;101638.69;4953768;28;20171;-77
2022/03/05 04:54:11;;;;;;;21.33;9.82;;;;;;;7.81;31.89;101636.03;4949677;28;20125;-75
2022/03/05 04:56:38;;;;;;;23.90;10.15;;;;;;;7.78;31.81;101637.03;4935060;28;20157;-73
2022/03/05 04:59:04;;;;;;;26.60;10.45;;;;;;;7.77;31.61;101635.28;4947271;28;20055;-73
2022/03/05 05:01:31;;;;;;;21.17;10.35;;;;;;;7.76;31.86;101635.34;4948684;28;20491;-75
2022/03/05 05:03:58;;;;;;;23.63;11.00;;;;;;;7.73;31.87;101638.19;4957140;28;20706;-73
2022/03/05 05:06:24;;;;;;;25.40;10.98;;;;;;;7.70;31.94;101636.50;4965759;28;20051;-72
2022/03/05 05:08:52;;;;;;;21.13;9.20;;;;;;;7.68;32.25;101641.06;4931359;28;20059;-76
2022/03/05 05:11:18;;;;;;;24.05;9.70;;;;;;;7.66;31.80;101640.25;4946601;28;20134;-72
2022/03/05 05:13:45;;;;;;;21.98;9.93;;;;;;;7.66;32.11;101640.25;4929203;29;20195;-72
2022/03/05 05:16:11;;;;;;;22.95;10.93;;;;;;;7.66;32.13;101642.09;4949244;28;20217;-74
2022/03/05 05:18:38;;;;;;;24.13;10.23;;;;;;;7.64;32.08;101644.88;4950794;28;20054;-73
2022/03/05 05:21:04;;;;;;;25.55;10.10;;;;;;;7.62;31.89;101642.22;4933539;28;20126;-74
2022/03/05 05:23:31;;;;;;;22.48;10.63;;;;;;;7.62;32.04;101644.94;4944156;28;20146;-75
2022/03/05 05:25:59;;;;;;;21.50;10.70;;;;;;;7.63;32.29;101645.81;4951533;28;20055;-73
2022/03/05 05:28:25;;;;;;;22.50;10.48;;;;;;;7.62;32.03;101653.03;4953615;28;20679;-72
2022/03/05 05:30:52;;;;;;;21.08;9.43;;;;;;;7.63;32.13;101645.81;4951287;28;20126;-75
2022/03/05 05:33:20;;;;;;;21.40;9.55;;;;;;;7.63;32.05;101654.81;4941863;29;20587;-72
2022/03/05 05:35:46;;;;;;;18.63;8.93;;;;;;;7.64;32.36;101658.38;4947153;28;20568;-75
2022/03/05 05:38:13;;;;;;;23.58;10.40;;;;;;;7.65;32.32;101649.34;4942840;28;20087;-74
2022/03/05 05:40:40;;;;;;;19.88;8.85;;;;;;;7.66;32.48;101659.19;4957733;28;20142;-73
2022/03/05 05:43:06;;;;;;;21.92;9.73;;;;;;;7.68;32.27;101656.41;4931124;29;20055;-74
2022/03/05 05:45:33;;;;;;;21.95;9.60;;;;;;;7.67;32.45;101658.22;4933193;29;20142;-73
2022/03/05 05:48:01;;;;;;;21.52;9.63;;;;;;;7.68;32.34;101661.81;4947873;28;20439;-74
2022/03/05 05:50:28;;;;;;;20.75;10.10;;;;;;;7.70;32.31;101659.94;4942361;28;20504;-73
2022/03/05 05:52:54;;;;;;;21.17;10.05;;;;;;;7.72;32.34;101661.63;4950151;28;20051;-74
2022/03/05 05:55:21;;;;;;;20.77;9.23;;;;;;;7.73;32.44;101659.81;4932366;28;20475;-73
2022/03/05 05:57:47;;;;;;;18.52;9.13;;;;;;;7.73;32.16;101662.53;4948541;28;20135;-77
2022/03/05 06:00:14;;;;;;;23.60;9.43;;;;;;;7.74;32.48;101665.13;4952586;28;20035;-75
2022/03/05 06:02:41;;;;;;;20.20;9.90;;;;;;;7.76;32.49;101656.97;4950302;28;20057;-72
2022/03/05 06:05:08;;;;;;;20.20;9.40;;;;;;;7.76;32.52;101668.66;4945878;28;20595;-74
2022/03/05 06:07:34;;;;;;;22.38;10.15;;;;;;;7.76;32.26;101660.56;4952037;28;20124;-73
2022/03/05 06:10:01;;;;;;;22.65;9.45;;;;;;;7.76;32.20;101671.38;4953291;28;20061;-72
2022/03/05 06:12:27;;;;;;;22.05;10.07;;;;;;;7.75;32.31;101675.00;4957614;28;20169;-72
2022/03/05 06:14:54;;;;;;;21.45;10.43;;;;;;;7.74;32.49;101672.41;4951225;28;20134;-75
2022/03/05 06:17:21;;;;;;;18.63;8.80;;;;;;;7.74;32.30;101667.00;4950344;28;20091;-73
2022/03/05 06:19:48;;;;;;;21.30;9.57;;;;;;;7.72;32.06;101663.47;4951461;28;20059;-72
2022/03/05 06:22:14;;;;;;;20.85;9.35;;;;;;;7.70;32.47;101666.22;4954600;28;20055;-76
2022/03/05 06:24:41;;;;;;;21.75;9.63;;;;;;;7.71;32.42;101669.81;4958425;28;20055;-73
2022/03/05 06:27:07;;;;;;;20.40;9.48;;;;;;;7.69;32.22;101667.16;4942163;29;20051;-73
2022/03/05 06:29:34;;;;;;;19.60;8.77;;;;;;;7.69;32.37;101669.88;4958668;28;20074;-73
2022/03/05 06:32:01;;;;;;;20.58;9.50;;;;;;;7.70;32.63;101668.94;4951077;28;20047;-73
2022/03/05 06:34:28;;;;;;;17.33;8.40;;;;;;;7.70;32.30;101671.63;4936430;29;20347;-72
2022/03/05 06:36:55;;;;;;;19.15;9.23;;;;;;;7.70;32.91;101663.53;4940000;28;20039;-75
2022/03/05 06:39:22;;;;;;;20.73;9.68;;;;;;;7.70;32.47;101666.22;4933234;29;20149;-72
2022/03/05 06:41:49;;;;;;;21.90;9.55;;;;;;;7.69;32.33;101669.88;4954244;28;20141;-76
2022/03/05 06:44:16;;;;;;;18.95;8.95;;;;;;;7.69;32.46;101671.69;4945765;28;20075;-74
2022/03/05 06:46:42;;;;;;;21.17;9.45;;;;;;;7.69;32.58;101669.00;4957978;28;20089;-75
2022/03/05 06:49:09;;;;;;;22.42;10.70;;;;;;;7.67;32.62;101671.75;4953306;28;20138;-74
2022/03/05 06:51:35;;;;;;;21.05;10.32;;;;;;;7.66;32.76;101669.97;4952538;28;20126;-76
2022/03/05 06:54:02;;;;;;;17.38;9.35;;;;;;;7.66;32.89;101674.53;4950056;28;20079;-74
2022/03/05 06:56:29;;;;;;;21.67;9.55;;;;;;;7.68;33.39;101670.81;4946276;28;20086;-76
2022/03/05 06:58:55;;;;;;;20.20;9.85;;;;;;;7.73;33.54;101676.91;4952562;28;20464;-75
2022/03/05 07:01:22;;;;;;;18.50;9.55;;;;;;;7.82;33.95;101679.25;4955901;28;20467;-74
2022/03/05 07:03:49;;;;;;;21.15;9.57;;;;;;;7.94;34.05;101686.81;4953107;28;20055;-75
2022/03/05 07:06:15;;;;;;;22.42;11.02;;;;;;;8.08;34.43;101683.50;4952495;28;20125;-75
2022/03/05 07:08:42;;;;;;;21.10;10.55;;;;;;;8.24;34.18;101698.13;4933152;28;20113;-73
2022/03/05 07:11:08;;;;;;;22.13;11.32;;;;;;;8.43;34.42;101698.22;4953539;28;20134;-73
2022/03/05 07:13:35;;;;;;;19.83;10.10;;;;;;;8.62;34.52;101691.06;4951159;28;20131;-73
2022/03/05 07:16:01;;;;;;;20.88;10.07;;;;;;;8.83;34.45;101685.59;4935936;28;20285;-73
2022/03/05 07:18:28;;;;;;;19.88;9.93;;;;;;;9.05;34.71;101684.53;4952817;28;20428;-73
2022/03/05 07:20:57;;;;;;;21.10;9.55;;;;;;;9.28;34.40;101688.84;4953644;28;20046;-74
2022/03/05 07:23:24;;;;;;;19.90;9.45;;;;;;;9.51;34.40;101687.72;4950506;28;20484;-73
2022/03/05 07:25:51;;;;;;;19.55;10.07;;;;;;;9.72;33.93;101686.63;4953767;28;20240;-74
2022/03/05 07:28:18;;;;;;;18.80;9.60;;;;;;;9.94;34.06;101689.16;4953466;28;20090;-73
2022/03/05 07:30:44;;;;;;;20.67;9.93;;;;;;;10.17;33.81;101694.31;4959834;28;20480;-73
2022/03/05 07:33:13;;;;;;;18.42;9.75;;;;;;;10.40;33.54;101692.22;4959388;28;20053;-73
2022/03/05 07:35:39;;;;;;;18.90;9.90;;;;;;;10.63;33.39;101695.47;4950850;28;20572;-74
2022/03/05 07:38:06;;;;;;;21.45;10.25;;;;;;;10.85;33.13;101702.47;4950734;28;20048;-74
2022/03/05 07:40:33;;;;;;;17.92;9.52;;;;;;;11.04;33.18;101689.63;4949480;28;20075;-74
2022/03/05 07:42:59;;;;;;;19.48;10.07;;;;;;;11.24;32.91;101705.69;4955545;28;20051;-74
2022/03/05 07:45:26;;;;;;;18.58;9.85;;;;;;;11.42;32.40;101698.34;4947975;28;20435;-74
2022/03/05 07:47:52;;;;;;;20.95;11.32;;;;;;;11.54;32.28;101700.34;4955409;28;20090;-73
2022/03/05 07:50:19;;;;;;;16.92;9.40;;;;;;;11.67;32.01;101698.69;4949739;28;20086;-75
2022/03/05 07:52:46;;;;;;;18.95;9.75;;;;;;;11.79;31.73;101705.28;4956240;28;20492;-74
2022/03/05 07:55:13;;;;;;;18.05;9.88;;;;;;;11.88;31.69;101704.75;4956912;28;20143;-73
2022/03/05 07:57:40;;;;;;;18.30;9.98;;;;;;;11.99;31.45;101704.13;4953011;28;20047;-74
2022/03/05 08:00:07;;;;;;;19.58;9.73;;;;;;;12.09;31.23;101711.66;4949810;28;20059;-74
2022/03/05 08:02:50;;;;;;;17.50;9.23;;;;;;;12.18;30.66;101708.41;4947249;28;20050;-73
2022/03/05 08:05:17;;;;;;;18.98;9.50;;;;;;;12.28;30.69;101713.25;4932029;29;20055;-72
2022/03/05 08:07:44;;;;;;;18.85;10.05;;;;;;;12.35;30.27;101712.81;4958938;28;20070;-73
2022/03/05 08:10:10;;;;;;;18.63;9.82;;;;;;;12.41;30.25;101712.44;4953343;28;20094;-76
2022/03/05 08:12:37;;;;;;;20.27;10.48;;;;;;;12.44;30.08;101716.81;4953944;28;20134;-74
2022/03/05 08:15:06;;;;;;;16.67;8.98;;;;;;;12.46;29.84;101720.31;4945937;28;20058;-74
2022/03/05 08:17:32;;;;;;;18.67;9.65;;;;;;;12.45;29.46;101719.44;4960877;28;20051;-75
2022/03/05 08:19:59;;;;;;;19.60;10.18;;;;;;;12.44;29.52;101725.84;4958313;28;20142;-74
2022/03/05 08:22:27;;;;;;;19.15;10.10;;;;;;;12.39;29.33;101728.00;4961481;28;20070;-74
2022/03/05 08:24:54;;;;;;;19.05;9.50;;;;;;;12.36;29.23;101730.00;4950169;28;20130;-72
2022/03/05 08:27:21;;;;;;;18.08;9.73;;;;;;;12.30;29.37;101724.94;4954649;28;20046;-74
2022/03/05 08:29:48;;;;;;;17.77;9.13;;;;;;;12.25;29.17;101732.53;4953543;28;20138;-75
2022/03/05 08:32:14;;;;;;;15.98;9.07;;;;;;;12.20;29.41;101735.50;4949080;28;20477;-73
2022/03/05 08:34:41;;;;;;;16.98;9.32;;;;;;;12.16;29.47;101728.50;4955049;28;20475;-73
2022/03/05 08:37:07;;;;;;;16.60;8.88;;;;;;;12.12;29.41;101733.25;4950972;28;20059;-75
2022/03/05 08:39:34;;;;;;;17.92;9.32;;;;;;;12.13;29.76;101731.41;4952786;28;20642;-75
2022/03/05 08:42:00;;;;;;;18.50;9.18;;;;;;;12.13;29.58;101734.13;4940077;28;20047;-73
2022/03/05 08:44:27;;;;;;;15.85;9.32;;;;;;;12.13;29.84;101737.72;4950590;28;20492;-72
2022/03/05 08:46:53;;;;;;;15.95;8.77;;;;;;;12.13;29.37;101732.28;4953942;28;20102;-68
2022/03/05 08:49:20;;;;;;;16.35;8.98;;;;;;;12.13;29.67;101728.66;4948961;28;20146;-68
2022/03/05 08:51:47;;;;;;;15.38;8.68;;;;;;;12.13;29.84;101726.81;4933845;29;20055;-68
2022/03/05 08:54:13;;;;;;;15.43;9.18;;;;;;;12.14;29.64;101719.53;4937447;28;20133;-69
2022/03/05 08:56:40;;;;;;;18.05;9.35;;;;;;;12.17;29.71;101724.81;4950089;28;20137;-68
2022/03/05 08:59:06;;;;;;;16.85;9.00;;;;;;;12.16;29.48;101712.16;4955911;28;20065;-67
2022/03/05 09:01:33;;;;;;;18.52;9.40;;;;;;;12.15;29.51;101722.19;4955622;28;20055;-68
2022/03/05 09:04:00;;;;;;;16.60;8.38;;;;;;;12.16;29.45;101712.16;4957424;28;20058;-68
2022/03/05 09:06:26;;;;;;;18.38;10.32;;;;;;;12.16;29.51;101715.78;4967297;28;20109;-68
2022/03/05 09:08:53;;;;;;;17.55;9.70;;;;;;;12.18;29.61;101715.69;4948466;29;20289;-69
2022/03/05 09:11:19;;;;;;;15.65;9.60;;;;;;;12.18;29.12;101711.13;4965006;28;20142;-69
2022/03/05 09:13:46;;;;;;;16.05;9.48;;;;;;;12.18;29.30;101718.41;4967744;28;20215;-69
2022/03/05 09:16:12;;;;;;;19.63;10.10;;;;;;;12.17;29.20;101717.53;4959488;28;20055;-68
2022/03/05 09:18:39;;;;;;;15.38;8.70;;;;;;;12.16;29.51;101713.03;4948569;28;20059;-72
2022/03/05 09:21:06;;;;;;;17.38;8.77;;;;;;;12.17;29.26;101712.09;4950589;28;20165;-68
2022/03/05 09:23:33;;;;;;;15.73;8.70;;;;;;;12.19;29.29;101709.25;4949818;28;20063;-68
2022/03/05 09:26:00;;;;;;;16.67;9.38;;;;;;;12.19;29.46;101712.84;4950438;29;20111;-68
2022/03/05 09:28:26;;;;;;;19.15;9.82;;;;;;;12.22;29.13;101708.19;4951910;28;20145;-68
2022/03/05 09:30:53;;;;;;;16.35;9.23;;;;;;;12.24;29.12;101711.69;4969874;28;20157;-68
2022/03/05 09:33:22;;;;;;;17.52;9.80;;;;;;;12.26;29.39;101707.06;4969501;28;20467;-68
2022/03/05 09:35:50;;;;;;;17.48;8.95;;;;;;;12.28;29.16;101708.69;4969312;28;20416;-68
2022/03/05 09:38:17;;;;;;;16.13;9.15;;;;;;;12.29;29.16;101706.84;4965242;28;20142;-68
2022/03/05 09:40:45;;;;;;;19.05;9.85;;;;;;;12.32;29.22;101713.00;4956638;28;20549;-68
2022/03/05 09:43:12;;;;;;;17.00;9.55;;;;;;;12.34;29.48;101712.91;4962523;28;20586;-68
2022/03/05 09:45:43;;;;;;;17.80;9.93;;;;;;;12.37;29.30;101704.53;4950789;28;20051;-68
2022/03/05 09:48:10;;;;;;;17.73;9.85;;;;;;;12.40;29.14;101709.81;4951199;28;20058;-68
2022/03/05 09:50:36;;;;;;;16.45;8.88;;;;;;;12.42;29.40;101713.31;4963920;28;20043;-68
2022/03/05 09:53:03;;;;;;;17.10;9.80;;;;;;;12.45;29.19;101710.38;4964763;28;20531;-69
2022/03/05 09:55:31;;;;;;;17.25;9.15;;;;;;;12.47;29.32;101713.91;4949322;28;20126;-68
2022/03/05 09:57:59;;;;;;;18.73;10.05;;;;;;;12.52;29.31;101715.38;4949256;29;20518;-69
2022/03/05 10:00:26;;;;;;;15.43;8.90;;;;;;;12.57;29.28;101715.97;4955562;28;20522;-69
2022/03/05 10:02:53;;;;;;;14.60;8.50;;;;;;;12.62;29.55;101712.06;4956610;28;20146;-69
2022/03/05 10:05:26;;;;;;;15.73;8.88;;;;;;;12.72;29.48;101724.16;4972507;23;20054;-75
2022/03/05 10:08:00;;;;;;;16.65;9.15;;;;;;;12.79;29.33;101715.50;4987710;28;20072;-75
2022/03/05 10:10:28;;;;;;;15.45;8.60;;;;;;;12.86;29.48;101711.44;4968934;28;20133;-75
2022/03/05 10:12:55;;;;;;;17.63;10.65;;;;;;;12.95;29.31;101723.59;4989311;28;20049;-75
2022/03/05 10:15:21;;;;;;;18.42;10.10;;;;;;;13.03;28.98;101725.84;4986607;28;20483;-75
2022/03/05 10:17:49;;;;;;;15.30;9.05;;;;;;;13.08;28.45;101713.69;4986660;28;20051;-76
2022/03/05 10:20:16;;;;;;;18.90;10.57;;;;;;;13.11;28.83;101715.31;4987872;28;20078;-74
2022/03/05 10:23:05;;;;;;;18.80;9.93;;;;;;;13.14;28.37;101718.78;4994498;28;20113;-72
2022/03/05 10:25:52;;;;;;;16.90;9.52;;;;;;;13.16;28.54;101716.84;4985792;28;20137;-72
2022/03/05 10:28:24;;;;;;;17.50;8.95;;;;;;;13.17;28.83;101704.97;4987189;28;20439;-73
2022/03/05 10:30:54;;;;;;;15.32;8.60;;;;;;;13.19;28.81;101705.72;4986037;28;20070;-74
2022/03/05 10:33:26;;;;;;;15.25;8.85;;;;;;;13.28;28.65;101705.13;4987622;28;20078;-75
2022/03/05 10:35:53;;;;;;;16.08;9.00;;;;;;;13.32;28.89;101708.56;4963890;28;20089;-74
2022/03/05 10:38:20;;;;;;;16.38;9.20;;;;;;;13.38;28.73;101701.81;4969821;28;20054;-76
2022/03/05 10:40:56;;;;;;;15.68;9.07;;;;;;;13.47;28.56;101703.94;4987531;28;20514;-75
2022/03/05 10:43:23;;;;;;;14.43;8.43;;;;;;;13.50;28.61;101701.91;4966318;28;20058;-72
2022/03/05 10:45:50;;;;;;;14.68;8.13;;;;;;;13.56;29.03;101701.50;4977524;28;20525;-75
2022/03/05 10:48:28;;;;;;;15.45;9.15;;;;;;;13.64;28.24;101698.25;4968928;28;20581;-74
2022/03/05 10:51:09;;;;;;;14.65;8.68;;;;;;;13.69;28.07;101686.03;4990025;28;20609;-76
2022/03/05 10:53:45;;;;;;;14.98;8.25;;;;;;;13.77;28.21;101688.25;4989474;28;20054;-73
2022/03/05 10:56:32;;;;;;;15.43;8.50;;;;;;;13.84;28.23;101694.19;4988921;28;20053;-74
2022/03/05 10:59:11;;;;;;;14.40;8.73;;;;;;;13.93;28.08;101686.25;4960142;28;20479;-73
2022/03/05 11:01:41;;;;;;;14.25;8.68;;;;;;;14.01;28.02;101685.72;4967549;28;20126;-73
2022/03/05 11:04:10;;;;;;;14.05;7.95;;;;;;;14.08;28.08;101689.81;4973343;28;20054;-67
2022/03/05 11:06:42;;;;;;;14.75;8.77;;;;;;;14.16;28.30;101697.47;4991903;28;20050;-67
2022/03/05 11:09:11;;;;;;;13.93;8.35;;;;;;;14.24;28.18;101689.63;4979568;28;20144;-73
2022/03/05 11:11:41;;;;;;;14.13;8.30;;;;;;;14.32;28.00;101692.72;4987752;28;20066;-73
2022/03/05 11:14:13;;;;;;;14.70;8.25;;;;;;;14.43;28.02;101690.13;4990131;28;20088;-72
2022/03/05 11:16:41;;;;;;;15.45;9.77;;;;;;;14.45;28.02;101685.44;4988573;28;20483;-74
2022/03/05 11:19:08;;;;;;;14.95;8.45;;;;;;;14.52;27.65;101686.75;4987397;28;20558;-73
2022/03/05 11:21:35;;;;;;;15.07;9.00;;;;;;;14.57;27.68;101680.97;4989212;28;20388;-73
2022/03/05 11:24:04;;;;;;;14.18;7.93;;;;;;;14.61;27.27;101688.84;4971165;28;20089;-71
2022/03/05 11:26:31;;;;;;;13.52;8.70;;;;;;;14.64;27.47;101688.63;4992618;28;20133;-71